createdAt,value
2019-04-03T00:00:18.985Z,79.89
2019-04-03T00:01:19.198Z,79.6
2019-04-03T00:02:19.024Z,79.7
2019-04-03T00:03:19.052Z,80.18
2019-04-03T00:04:18.944Z,80.27
2019-04-03T00:05:18.959Z,79.89
2019-04-03T00:06:18.928Z,80.65
2019-04-03T00:07:18.933Z,80.46
2019-04-03T00:08:18.903Z,80.75
2019-04-03T00:09:18.951Z,80.55
2019-04-03T00:10:18.896Z,80.55
2019-04-03T00:11:18.908Z,80.27
2019-04-03T00:12:18.872Z,80.27
2019-04-03T00:13:18.855Z,80.55
2019-04-03T00:14:18.932Z,80.65
2019-04-03T00:15:18.854Z,80.65
2019-04-03T00:16:18.891Z,80.84
2019-04-03T00:17:18.826Z,80.84
2019-04-03T00:18:19.258Z,81.23
2019-04-03T00:19:20.479Z,81.03
2019-04-03T00:20:20.593Z,81.13
2019-04-03T00:21:21.685Z,81.37
2019-04-03T00:22:19.689Z,80.9
2019-04-03T00:23:18.775Z,81.66
2019-04-03T00:24:18.742Z,81.47
2019-04-03T00:25:18.747Z,81.56
2019-04-03T00:26:18.752Z,81.09
2019-04-03T00:27:18.730Z,81.13
2019-04-03T00:28:18.698Z,81.47
2019-04-03T00:29:18.743Z,81.89
2019-04-03T00:30:18.694Z,82.14
2019-04-03T00:31:18.863Z,81.41
2019-04-03T00:32:18.671Z,81.32
2019-04-03T00:33:18.644Z,81.32
2019-04-03T00:34:18.647Z,81.03
2019-04-03T00:35:18.631Z,81.85
2019-04-03T00:36:18.629Z,81.95
2019-04-03T00:37:18.629Z,81.6
2019-04-03T00:38:18.608Z,82.08
2019-04-03T00:39:18.581Z,81.56
2019-04-03T00:40:18.586Z,81.76
2019-04-03T00:41:18.562Z,82.8
2019-04-03T00:42:18.556Z,82.32
2019-04-03T00:43:18.546Z,82.04
2019-04-03T00:44:18.596Z,82.51
2019-04-03T00:45:18.523Z,82.7
2019-04-03T00:46:18.656Z,82.61
2019-04-03T00:47:18.515Z,83.56
2019-04-03T00:48:18.543Z,83.09
2019-04-03T00:49:18.476Z,83.28
2019-04-03T00:50:18.480Z,83.47
2019-04-03T00:51:18.556Z,83.37
2019-04-03T00:52:18.463Z,83.56
2019-04-03T00:53:18.469Z,83.65
2019-04-03T00:54:18.440Z,83.94
2019-04-03T00:55:18.544Z,83.94
2019-04-03T00:56:18.421Z,83.85
2019-04-03T00:57:18.429Z,83.85
2019-04-03T00:58:18.382Z,84.23
2019-04-03T00:59:18.370Z,84.23
2019-04-03T01:00:18.468Z,84.8
2019-04-03T01:01:18.364Z,84.52
2019-04-03T01:02:19.149Z,84.61
2019-04-03T01:03:18.325Z,84.8
2019-04-03T01:04:18.316Z,85.28
2019-04-03T01:05:18.474Z,85.28
2019-04-03T01:06:18.309Z,84.99
2019-04-03T01:07:18.303Z,84.89
2019-04-03T01:08:18.271Z,84.99
2019-04-03T01:09:18.328Z,84.89
2019-04-03T01:10:18.381Z,85.08
2019-04-03T01:11:18.242Z,85.47
2019-04-03T01:12:18.247Z,85.47
2019-04-03T01:13:18.308Z,85.47
2019-04-03T01:14:18.213Z,85.18
2019-04-03T01:15:18.348Z,84.89
2019-04-03T01:16:18.203Z,85.24
2019-04-03T01:17:18.195Z,85.37
2019-04-03T01:18:18.174Z,85.85
2019-04-03T01:19:18.314Z,85.37
2019-04-03T01:20:18.170Z,85.28
2019-04-03T01:21:18.150Z,85.56
2019-04-03T01:22:18.210Z,85.66
2019-04-03T01:23:18.214Z,85.75
2019-04-03T01:24:17.857Z,85.94
2019-04-03T01:25:18.105Z,85.47
2019-04-03T01:26:18.077Z,86.13
2019-04-03T01:27:18.083Z,85.71
2019-04-03T01:28:18.054Z,86.38
2019-04-03T01:29:18.124Z,86.22
2019-04-03T01:30:18.151Z,85.99
2019-04-03T01:31:18.089Z,86.28
2019-04-03T01:32:18.594Z,85.99
2019-04-03T01:33:19.028Z,86.18
2019-04-03T01:34:19.873Z,86.47
2019-04-03T01:35:19.620Z,86.38
2019-04-03T01:36:19.815Z,86.94
2019-04-03T01:37:20.977Z,87.04
2019-04-03T01:38:19.461Z,86.57
2019-04-03T01:39:18.913Z,86.57
2019-04-03T01:40:20.071Z,86.85
2019-04-03T01:41:18.801Z,86.85
2019-04-03T01:42:17.909Z,86.76
2019-04-03T01:43:18.040Z,86.94
2019-04-03T01:44:17.879Z,87.08
2019-04-03T01:45:17.887Z,86.7
2019-04-03T01:46:17.932Z,87.04
2019-04-03T01:47:17.929Z,87.08
2019-04-03T01:48:17.838Z,87.18
2019-04-03T01:49:17.836Z,86.99
2019-04-03T01:50:17.867Z,86.94
2019-04-03T01:51:17.822Z,86.94
2019-04-03T01:52:17.909Z,86.94
2019-04-03T01:53:17.814Z,86.76
2019-04-03T01:54:17.786Z,86.7
2019-04-03T01:55:17.822Z,86.9
2019-04-03T01:56:17.765Z,86.9
2019-04-03T01:57:17.741Z,87.27
2019-04-03T01:58:17.748Z,87.18
2019-04-03T01:59:17.717Z,86.76
2019-04-03T02:00:17.724Z,87.56
2019-04-03T02:01:17.775Z,87.27
2019-04-03T02:02:17.696Z,87.23
2019-04-03T02:03:17.442Z,87.18
2019-04-03T02:04:17.664Z,87.42
2019-04-03T02:05:17.651Z,87.23
2019-04-03T02:06:17.675Z,87.52
2019-04-03T02:07:17.648Z,87.52
2019-04-03T02:08:17.645Z,87.61
2019-04-03T02:09:18.613Z,87.71
2019-04-03T02:10:19.873Z,88.18
2019-04-03T02:11:18.521Z,87.99
2019-04-03T02:12:17.901Z,88.37
2019-04-03T02:13:17.564Z,87.99
2019-04-03T02:14:17.572Z,87.99
2019-04-03T02:15:17.569Z,88.37
2019-04-03T02:16:17.548Z,88.37
2019-04-03T02:17:17.519Z,88.18
2019-04-03T02:18:17.512Z,88.28
2019-04-03T02:19:17.497Z,88.66
2019-04-03T02:20:17.504Z,88.75
2019-04-03T02:21:17.615Z,88.94
2019-04-03T02:22:17.467Z,88.37
2019-04-03T02:23:17.459Z,88.75
2019-04-03T02:24:17.441Z,89.04
2019-04-03T02:25:17.502Z,89.42
2019-04-03T02:26:17.459Z,89.32
2019-04-03T02:27:17.408Z,89.14
2019-04-03T02:28:17.417Z,89.42
2019-04-03T02:29:17.389Z,89.8
2019-04-03T02:30:17.397Z,89.42
2019-04-03T02:31:21.090Z,89.7
2019-04-03T02:32:17.553Z,89.51
2019-04-03T02:33:17.480Z,90.08
2019-04-03T02:34:17.334Z,89.89
2019-04-03T02:35:17.322Z,89.8
2019-04-03T02:36:17.432Z,90.18
2019-04-03T02:37:19.879Z,89.61
2019-04-03T02:38:21.282Z,89.89
2019-04-03T02:39:17.312Z,89.99
2019-04-03T02:40:17.266Z,90.28
2019-04-03T02:41:17.300Z,90.28
2019-04-03T02:42:17.269Z,90.94
2019-04-03T02:43:17.939Z,90.28
2019-04-03T02:44:21.050Z,90.33
2019-04-03T02:45:17.537Z,90.33
2019-04-03T02:46:17.196Z,90.52
2019-04-03T02:47:17.448Z,90.99
2019-04-03T02:48:17.594Z,90.52
2019-04-03T02:49:17.186Z,90.89
2019-04-03T02:50:17.812Z,91.28
2019-04-03T02:51:19.445Z,91.18
2019-04-03T02:52:17.136Z,91.08
2019-04-03T02:53:16.896Z,90.89
2019-04-03T02:54:17.128Z,91.47
2019-04-03T02:55:17.102Z,91.28
2019-04-03T02:56:17.161Z,92.03
2019-04-03T02:57:20.203Z,91.75
2019-04-03T02:58:21.040Z,92.22
2019-04-03T02:59:17.070Z,92.03
2019-04-03T03:00:17.348Z,91.66
2019-04-03T03:01:17.056Z,91.85
2019-04-03T03:02:17.172Z,92.41
2019-04-03T03:03:19.874Z,92.32
2019-04-03T03:04:20.211Z,92.32
2019-04-03T03:05:17.010Z,92.32
2019-04-03T03:06:17.363Z,92.8
2019-04-03T03:07:16.968Z,92.61
2019-04-03T03:08:17.039Z,92.99
2019-04-03T03:09:17.008Z,92.8
2019-04-03T03:10:21.399Z,92.8
2019-04-03T03:11:16.915Z,92.51
2019-04-03T03:12:16.984Z,92.51
2019-04-03T03:13:17.229Z,92.7
2019-04-03T03:14:16.880Z,92.7
2019-04-03T03:15:17.050Z,93.08
2019-04-03T03:16:20.484Z,92.89
2019-04-03T03:17:16.909Z,93.08
2019-04-03T03:18:17.064Z,93.08
2019-04-03T03:19:16.835Z,93.18
2019-04-03T03:20:16.829Z,93.65
2019-04-03T03:21:17.094Z,93.75
2019-04-03T03:22:19.860Z,93.08
2019-04-03T03:23:16.794Z,93.46
2019-04-03T03:24:16.783Z,93.46
2019-04-03T03:25:17.209Z,93.46
2019-04-03T03:26:16.746Z,93.37
2019-04-03T03:27:16.809Z,93.08
2019-04-03T03:28:17.292Z,93.18
2019-04-03T03:29:25.021Z,93.08
2019-04-03T03:30:44.803Z,93.37
2019-04-03T03:31:17.743Z,93.37
2019-04-03T03:32:35.615Z,93.37
2019-04-03T03:33:39.511Z,93.46
2019-04-03T03:34:56.392Z,93.55
2019-04-03T03:35:50.765Z,93.65
2019-04-03T03:36:44.128Z,93.08
2019-04-03T03:37:43.311Z,93.46
2019-04-03T03:38:43.514Z,93.08
2019-04-03T03:39:46.428Z,93.18
2019-04-03T03:40:47.049Z,93.46
2019-04-03T03:41:43.197Z,93.46
2019-04-03T03:42:43.221Z,93.55
2019-04-03T03:43:43.183Z,92.99
2019-04-03T03:44:47.926Z,93.55
2019-04-03T03:45:43.174Z,93.46
2019-04-03T03:46:43.152Z,93.65
2019-04-03T03:47:43.261Z,93.46
2019-04-03T03:48:46.535Z,93.75
2019-04-03T03:49:43.474Z,93.65
2019-04-03T03:50:43.097Z,93.37
2019-04-03T03:51:43.086Z,92.99
2019-04-03T03:52:43.069Z,93.65
2019-04-03T03:53:46.915Z,93.18
2019-04-03T03:54:43.076Z,93.37
2019-04-03T03:55:43.556Z,93.37
2019-04-03T03:56:43.036Z,93.08
2019-04-03T03:57:43.431Z,92.99
2019-04-03T03:58:47.209Z,93.18
2019-04-03T03:59:43.229Z,92.99
2019-04-03T04:00:43.208Z,93.18
2019-04-03T04:01:43.058Z,93.18
2019-04-03T04:02:46.661Z,92.99
2019-04-03T04:03:44.580Z,92.89
2019-04-03T04:04:46.476Z,93.08
2019-04-03T04:05:43.477Z,93.75
2019-04-03T04:06:42.925Z,92.99
2019-04-03T04:07:43.570Z,93.55
2019-04-03T04:08:47.205Z,93.46
2019-04-03T04:09:43.183Z,93.65
2019-04-03T04:10:42.878Z,93.08
2019-04-03T04:11:43.156Z,93.08
2019-04-03T04:12:44.382Z,93.08
2019-04-03T04:13:42.892Z,93.08
2019-04-03T04:14:43.122Z,93.65
2019-04-03T04:15:42.810Z,93.65
2019-04-03T04:16:43.150Z,93.46
2019-04-03T04:17:42.858Z,93.18
2019-04-03T04:18:42.891Z,94.03
2019-04-03T04:19:42.753Z,93.84
2019-04-03T04:20:42.768Z,94.03
2019-04-03T04:21:45.492Z,93.84
2019-04-03T04:22:43.012Z,93.84
2019-04-03T04:23:43.127Z,94.13
2019-04-03T04:24:42.765Z,94.22
2019-04-03T04:25:45.897Z,94.37
2019-04-03T04:26:42.983Z,94.51
2019-04-03T04:27:42.678Z,94.37
2019-04-03T04:28:43.389Z,94.74
2019-04-03T04:29:44.474Z,94.74
2019-04-03T04:30:44.793Z,94.79
2019-04-03T04:31:45.761Z,94.79
2019-04-03T04:32:45.540Z,94.79
2019-04-03T04:33:42.610Z,94.6
2019-04-03T04:34:42.832Z,94.32
2019-04-03T04:35:42.587Z,94.42
2019-04-03T04:36:42.579Z,94.42
2019-04-03T04:37:43.173Z,94.42
2019-04-03T04:38:42.560Z,94.6
2019-04-03T04:39:42.542Z,94.79
2019-04-03T04:40:42.598Z,94.98
2019-04-03T04:41:42.540Z,95.27
2019-04-03T04:42:42.493Z,95.46
2019-04-03T04:43:42.500Z,94.98
2019-04-03T04:44:43.885Z,94.42
2019-04-03T04:45:44.891Z,94.7
2019-04-03T04:46:44.488Z,94.42
2019-04-03T04:47:45.252Z,94.32
2019-04-03T04:48:42.437Z,94.32
2019-04-03T04:49:42.407Z,94.6
2019-04-03T04:50:42.420Z,94.51
2019-04-03T04:51:42.693Z,94.89
2019-04-03T04:52:42.518Z,94.7
2019-04-03T04:53:42.505Z,94.51
2019-04-03T04:54:45.381Z,94.03
2019-04-03T04:55:42.349Z,94.51
2019-04-03T04:56:42.342Z,94.7
2019-04-03T04:57:43.626Z,94.32
2019-04-03T04:58:45.237Z,94.22
2019-04-03T04:59:42.916Z,94.51
2019-04-03T05:00:42.295Z,94.51
2019-04-03T05:01:42.265Z,94.42
2019-04-03T05:02:42.323Z,94.7
2019-04-03T05:03:42.247Z,94.7
2019-04-03T05:04:42.388Z,93.94
2019-04-03T05:05:42.413Z,94.18
2019-04-03T05:06:42.226Z,94.27
2019-04-03T05:07:42.198Z,93.7
2019-04-03T05:08:42.400Z,94.08
2019-04-03T05:09:42.515Z,93.79
2019-04-03T05:10:42.182Z,94.08
2019-04-03T05:11:42.391Z,93.89
2019-04-03T05:12:46.642Z,94.37
2019-04-03T05:13:42.370Z,93.6
2019-04-03T05:14:42.308Z,93.23
2019-04-03T05:15:42.125Z,93.32
2019-04-03T05:16:42.203Z,93.51
2019-04-03T05:17:41.855Z,93.7
2019-04-03T05:18:42.075Z,93.13
2019-04-03T05:19:42.076Z,93.23
2019-04-03T05:20:42.052Z,92.84
2019-04-03T05:21:42.227Z,92.75
2019-04-03T05:22:42.400Z,92.51
2019-04-03T05:23:42.041Z,91.94
2019-04-03T05:24:42.034Z,92.22
2019-04-03T05:25:42.181Z,91.94
2019-04-03T05:26:41.985Z,91.46
2019-04-03T05:27:41.992Z,91.17
2019-04-03T05:28:53.526Z,91.37
2019-04-03T05:29:41.955Z,91.46
2019-04-03T05:30:42.052Z,91.17
2019-04-03T05:31:42.174Z,91.17
2019-04-03T05:32:43.596Z,90.89
2019-04-03T05:33:43.991Z,91.08
2019-04-03T05:34:43.412Z,90.89
2019-04-03T05:35:42.116Z,90.51
2019-04-03T05:36:41.883Z,90.08
2019-04-03T05:37:41.892Z,90.17
2019-04-03T05:38:42.078Z,90.75
2019-04-03T05:39:41.870Z,89.98
2019-04-03T05:40:41.838Z,89.32
2019-04-03T05:41:41.856Z,89.03
2019-04-03T05:42:41.818Z,89.03
2019-04-03T05:43:41.856Z,88.65
2019-04-03T05:44:41.803Z,88.65
2019-04-03T05:45:44.207Z,88.46
2019-04-03T05:46:42.063Z,88.18
2019-04-03T05:47:42.501Z,88.31
2019-04-03T05:48:41.761Z,87.98
2019-04-03T05:49:41.915Z,87.65
2019-04-03T05:50:41.917Z,87.74
2019-04-03T05:51:41.735Z,87.46
2019-04-03T05:52:41.721Z,87.17
2019-04-03T05:53:41.729Z,87.36
2019-04-03T05:54:44.131Z,86.98
2019-04-03T05:55:43.866Z,86.98
2019-04-03T05:56:42.888Z,86.69
2019-04-03T05:57:41.691Z,86.12
2019-04-03T05:58:53.697Z,86.41
2019-04-03T05:59:43.556Z,85.93
2019-04-03T06:00:41.660Z,86.22
2019-04-03T06:01:46.203Z,85.93
2019-04-03T06:02:41.900Z,85.78
2019-04-03T06:03:47.344Z,85.31
2019-04-03T06:04:43.212Z,85.78
2019-04-03T06:05:41.795Z,85.21
2019-04-03T06:06:41.779Z,85.02
2019-04-03T06:07:41.599Z,84.26
2019-04-03T06:08:41.601Z,84.36
2019-04-03T06:09:41.566Z,84.26
2019-04-03T06:10:41.787Z,83.5
2019-04-03T06:11:43.504Z,83.31
2019-04-03T06:12:44.557Z,83.25
2019-04-03T06:13:41.529Z,82.49
2019-04-03T06:14:41.535Z,82.2
2019-04-03T06:15:41.773Z,82.11
2019-04-03T06:16:41.517Z,82.4
2019-04-03T06:17:41.489Z,81.82
2019-04-03T06:18:41.501Z,81.35
2019-04-03T06:19:42.402Z,80.81
2019-04-03T06:20:43.438Z,80.43
2019-04-03T06:21:41.536Z,80.05
2019-04-03T06:22:41.467Z,80.24
2019-04-03T06:23:41.443Z,79.38
2019-04-03T06:24:41.450Z,79.28
2019-04-03T06:25:41.524Z,79.23
2019-04-03T06:26:43.970Z,78.56
2019-04-03T06:27:45.749Z,77.8
2019-04-03T06:28:42.750Z,77.7
2019-04-03T06:29:41.629Z,77.61
2019-04-03T06:30:41.523Z,77.32
2019-04-03T06:31:41.386Z,76.21
2019-04-03T06:32:41.377Z,75.45
2019-04-03T06:33:41.425Z,75.45
2019-04-03T06:34:45.229Z,75.16
2019-04-03T06:35:44.500Z,74.3
2019-04-03T06:36:41.107Z,74.59
2019-04-03T06:37:41.579Z,74.49
2019-04-03T06:38:41.355Z,74.78
2019-04-03T06:39:41.335Z,74.59
2019-04-03T06:40:41.338Z,73.48
2019-04-03T06:41:44.117Z,73.54
2019-04-03T06:42:43.974Z,73.44
2019-04-03T06:43:41.561Z,73.58
2019-04-03T06:44:41.530Z,73.86
2019-04-03T06:45:43.106Z,73.58
2019-04-03T06:46:41.395Z,72.91
2019-04-03T06:47:41.398Z,72.24
2019-04-03T06:48:41.776Z,71.99
2019-04-03T06:49:43.312Z,71.99
2019-04-03T06:50:41.521Z,71.99
2019-04-03T06:51:41.397Z,71.89
2019-04-03T06:52:41.244Z,71.22
2019-04-03T06:53:41.410Z,71.03
2019-04-03T06:54:44.107Z,70.46
2019-04-03T06:55:41.338Z,70.4
2019-04-03T06:56:43.464Z,70.01
2019-04-03T06:57:42.235Z,69.06
2019-04-03T06:58:44.339Z,68.9
2019-04-03T06:59:41.207Z,69.38
2019-04-03T07:00:41.315Z,69.29
2019-04-03T07:01:41.197Z,68.33
2019-04-03T07:02:41.227Z,67.69
2019-04-03T07:03:41.406Z,67.31
2019-04-03T07:04:41.326Z,66.16
2019-04-03T07:05:43.531Z,66.29
2019-04-03T07:06:42.768Z,66.38
2019-04-03T07:07:41.185Z,65.84
2019-04-03T07:08:43.416Z,65.33
2019-04-03T07:09:41.416Z,64.79
2019-04-03T07:10:54.565Z,64.12
2019-04-03T07:11:43.186Z,63.45
2019-04-03T07:12:41.385Z,62.77
2019-04-03T07:13:41.150Z,63.35
2019-04-03T07:14:41.176Z,62.62
2019-04-03T07:15:41.142Z,62.1
2019-04-03T07:16:41.431Z,62.23
2019-04-03T07:17:41.403Z,62.23
2019-04-03T07:18:41.507Z,62.71
2019-04-03T07:19:42.565Z,61.66
2019-04-03T07:20:41.210Z,61.37
2019-04-03T07:21:41.354Z,61.56
2019-04-03T07:22:41.124Z,61.66
2019-04-03T07:23:41.224Z,61.08
2019-04-03T07:24:41.128Z,61.18
2019-04-03T07:25:41.223Z,61.18
2019-04-03T07:26:41.104Z,60.99
2019-04-03T07:27:44.166Z,61.27
2019-04-03T07:28:43.348Z,60.79
2019-04-03T07:29:41.113Z,61.21
2019-04-03T07:30:41.187Z,60.72
2019-04-03T07:31:41.107Z,60.72
2019-04-03T07:32:41.331Z,60.25
2019-04-03T07:33:41.101Z,59.51
2019-04-03T07:34:41.080Z,58.17
2019-04-03T07:35:42.836Z,58.74
2019-04-03T07:36:45.472Z,58.64
2019-04-03T07:37:41.077Z,58.52
2019-04-03T07:38:41.186Z,58.52
2019-04-03T07:39:41.084Z,58.52
2019-04-03T07:40:41.085Z,58.52
2019-04-03T07:41:43.635Z,58.42
2019-04-03T07:42:41.338Z,58.71
2019-04-03T07:43:41.413Z,58.42
2019-04-03T07:44:41.061Z,58.55
2019-04-03T07:45:43.719Z,58.45
2019-04-03T07:46:41.055Z,58.36
2019-04-03T07:47:41.248Z,57.97
2019-04-03T07:48:41.056Z,57.97
2019-04-03T07:49:42.519Z,57.59
2019-04-03T07:50:43.871Z,57.68
2019-04-03T07:51:41.550Z,57.78
2019-04-03T07:52:41.047Z,57.59
2019-04-03T07:53:41.067Z,56.95
2019-04-03T07:54:41.063Z,57.04
2019-04-03T07:55:43.288Z,56.76
2019-04-03T07:56:41.042Z,56.18
2019-04-03T07:57:43.208Z,56.49
2019-04-03T07:58:41.058Z,55.34
2019-04-03T07:59:41.040Z,55.24
2019-04-03T08:00:42.077Z,54.83
2019-04-03T08:01:44.023Z,54.67
2019-04-03T08:02:45.336Z,55.22
2019-04-03T08:03:41.049Z,55.79
2019-04-03T08:04:41.317Z,55.22
2019-04-03T08:05:41.048Z,55.12
2019-04-03T08:06:41.030Z,54.93
2019-04-03T08:07:41.038Z,54.93
2019-04-03T08:08:41.026Z,55.12
2019-04-03T08:09:41.043Z,54.74
2019-04-03T08:10:41.044Z,55.12
2019-04-03T08:11:41.157Z,55.15
2019-04-03T08:12:41.037Z,54.77
2019-04-03T08:13:41.268Z,54.57
2019-04-03T08:14:43.210Z,54.67
2019-04-03T08:15:42.689Z,54.57
2019-04-03T08:16:45.852Z,54.09
2019-04-03T08:17:41.054Z,53.9
2019-04-03T08:18:41.040Z,54
2019-04-03T08:19:41.021Z,53.9
2019-04-03T08:20:41.035Z,53.32
2019-04-03T08:21:41.173Z,53.7
2019-04-03T08:22:41.036Z,53.61
2019-04-03T08:23:41.031Z,53.42
2019-04-03T08:24:42.492Z,53.8
2019-04-03T08:25:42.803Z,53.61
2019-04-03T08:26:41.330Z,53.42
2019-04-03T08:27:41.275Z,53.78
2019-04-03T08:28:41.092Z,53.97
2019-04-03T08:29:41.721Z,53.87
2019-04-03T08:30:42.544Z,54.45
2019-04-03T08:31:43.601Z,54.64
2019-04-03T08:32:41.306Z,54.74
2019-04-03T08:33:41.006Z,54.55
2019-04-03T08:34:41.122Z,54.74
2019-04-03T08:35:41.000Z,54.52
2019-04-03T08:36:42.258Z,54.71
2019-04-03T08:37:43.564Z,54.52
2019-04-03T08:38:43.759Z,55.1
2019-04-03T08:39:41.004Z,55.19
2019-04-03T08:40:41.379Z,55.47
2019-04-03T08:41:41.251Z,55.29
2019-04-03T08:42:40.983Z,56.15
2019-04-03T08:43:41.324Z,56.22
2019-04-03T08:44:41.185Z,56.12
2019-04-03T08:45:42.008Z,56.24
2019-04-03T08:46:43.777Z,56.31
2019-04-03T08:47:40.988Z,56.02
2019-04-03T08:48:40.981Z,56.12
2019-04-03T08:49:40.987Z,56.22
2019-04-03T08:50:41.328Z,56.44
2019-04-03T08:51:41.028Z,56.24
2019-04-03T08:52:40.994Z,56.05
2019-04-03T08:53:42.306Z,56.24
2019-04-03T08:54:43.971Z,56.15
2019-04-03T08:55:41.295Z,56.34
2019-04-03T08:56:40.994Z,55.29
2019-04-03T08:57:41.107Z,55.41
2019-04-03T08:58:40.933Z,55.99
2019-04-03T08:59:40.942Z,55.6
2019-04-03T09:00:40.937Z,55.51
2019-04-03T09:01:40.936Z,55.22
2019-04-03T09:02:43.416Z,55.12
2019-04-03T09:03:41.051Z,55.02
2019-04-03T09:04:41.163Z,54.45
2019-04-03T09:05:40.995Z,53.87
2019-04-03T09:06:40.900Z,54.06
2019-04-03T09:07:40.914Z,54.64
2019-04-03T09:08:40.891Z,54.55
2019-04-03T09:09:40.908Z,55.22
2019-04-03T09:10:41.213Z,55.12
2019-04-03T09:11:40.885Z,54.42
2019-04-03T09:12:41.348Z,54.71
2019-04-03T09:13:40.896Z,54.55
2019-04-03T09:14:40.887Z,54.33
2019-04-03T09:15:40.915Z,54.35
2019-04-03T09:16:41.226Z,54.55
2019-04-03T09:17:41.463Z,54.83
2019-04-03T09:18:41.149Z,54.45
2019-04-03T09:19:43.737Z,53.39
2019-04-03T09:20:43.132Z,53.01
2019-04-03T09:21:41.176Z,53.78
2019-04-03T09:22:41.034Z,53.68
2019-04-03T09:23:41.272Z,53.97
2019-04-03T09:24:40.914Z,53.3
2019-04-03T09:25:40.860Z,52.81
2019-04-03T09:26:41.204Z,53.01
2019-04-03T09:27:43.240Z,53.2
2019-04-03T09:28:43.879Z,53.2
2019-04-03T09:29:40.949Z,54.83
2019-04-03T09:30:40.829Z,54.25
2019-04-03T09:31:40.931Z,54.16
2019-04-03T09:32:41.007Z,54.06
2019-04-03T09:33:40.852Z,53.49
2019-04-03T09:34:40.814Z,53.49
2019-04-03T09:35:42.773Z,53.39
2019-04-03T09:36:40.985Z,52.84
2019-04-03T09:37:41.413Z,52.46
2019-04-03T09:38:43.146Z,52.55
2019-04-03T09:39:40.944Z,52.46
2019-04-03T09:40:40.791Z,52.65
2019-04-03T09:41:40.994Z,52.65
2019-04-03T09:42:40.786Z,52.55
2019-04-03T09:43:42.318Z,52.17
2019-04-03T09:44:40.894Z,52.17
2019-04-03T09:45:40.778Z,52.26
2019-04-03T09:46:41.056Z,52.08
2019-04-03T09:47:41.011Z,51.98
2019-04-03T09:48:40.742Z,51.79
2019-04-03T09:49:45.251Z,51.5
2019-04-03T09:50:41.088Z,51.5
2019-04-03T09:51:40.739Z,51.69
2019-04-03T09:52:50.710Z,51.69
2019-04-03T09:53:41.035Z,51.79
2019-04-03T09:54:40.739Z,52.36
2019-04-03T09:55:41.123Z,52.17
2019-04-03T09:57:03.176Z,52.17
2019-04-03T09:57:40.898Z,52.26
2019-04-03T09:58:40.923Z,52.17
2019-04-03T09:59:40.978Z,52.08
2019-04-03T10:00:44.140Z,52.46
2019-04-03T10:01:41.034Z,52.58
2019-04-03T10:02:41.168Z,52.39
2019-04-03T10:03:40.694Z,52.29
2019-04-03T10:04:40.883Z,52.1
2019-04-03T10:05:40.943Z,51.91
2019-04-03T10:06:40.770Z,51.81
2019-04-03T10:07:40.743Z,51.72
2019-04-03T10:08:43.072Z,51.53
2019-04-03T10:09:43.518Z,51.04
2019-04-03T10:10:40.670Z,50.56
2019-04-03T10:11:42.254Z,50.85
2019-04-03T10:12:42.558Z,50.56
2019-04-03T10:13:40.766Z,51.14
2019-04-03T10:14:40.649Z,51.23
2019-04-03T10:15:40.695Z,51.43
2019-04-03T10:16:40.877Z,51.33
2019-04-03T10:17:41.586Z,51.43
2019-04-03T10:18:43.548Z,51.23
2019-04-03T10:19:40.635Z,51.43
2019-04-03T10:20:40.909Z,51.62
2019-04-03T10:21:41.076Z,51.53
2019-04-03T10:22:40.869Z,51.07
2019-04-03T10:23:40.621Z,50.97
2019-04-03T10:24:41.080Z,51.07
2019-04-03T10:25:40.806Z,51.07
2019-04-03T10:26:43.142Z,50.4
2019-04-03T10:27:42.248Z,50.68
2019-04-03T10:28:42.346Z,50.4
2019-04-03T10:29:40.882Z,50.2
2019-04-03T10:30:40.709Z,50.59
2019-04-03T10:31:40.700Z,50.4
2019-04-03T10:32:40.608Z,49.74
2019-04-03T10:33:40.928Z,50.32
2019-04-03T10:34:40.616Z,49.84
2019-04-03T10:35:42.054Z,48.49
2019-04-03T10:36:44.099Z,48.59
2019-04-03T10:37:40.571Z,49.55
2019-04-03T10:38:42.286Z,48.88
2019-04-03T10:39:46.075Z,48.02
2019-04-03T10:40:40.798Z,48.21
2019-04-03T10:41:40.745Z,48.49
2019-04-03T10:42:40.576Z,47.82
2019-04-03T10:43:40.865Z,47.63
2019-04-03T10:44:40.570Z,48.21
2019-04-03T10:45:40.606Z,48.3
2019-04-03T10:46:40.562Z,48.21
2019-04-03T10:47:45.710Z,47.82
2019-04-03T10:48:40.571Z,47.27
2019-04-03T10:49:40.538Z,47.82
2019-04-03T10:50:41.411Z,47.72
2019-04-03T10:51:43.855Z,47.82
2019-04-03T10:52:43.393Z,47.75
2019-04-03T10:53:40.544Z,47.56
2019-04-03T10:54:40.973Z,47.65
2019-04-03T10:55:40.536Z,47.75
2019-04-03T10:56:40.816Z,47.65
2019-04-03T10:57:40.654Z,47.46
2019-04-03T10:58:44.379Z,46.59
2019-04-03T10:59:40.524Z,47.08
2019-04-03T11:00:40.657Z,46.98
2019-04-03T11:01:40.507Z,47.17
2019-04-03T11:02:40.799Z,47.39
2019-04-03T11:03:40.799Z,47.29
2019-04-03T11:04:40.882Z,46.81
2019-04-03T11:05:40.674Z,46.91
2019-04-03T11:06:40.492Z,46.62
2019-04-03T11:07:40.502Z,46.81
2019-04-03T11:08:40.527Z,46.62
2019-04-03T11:09:40.499Z,45.65
2019-04-03T11:10:40.480Z,46.42
2019-04-03T11:11:42.889Z,46.64
2019-04-03T11:12:40.478Z,46.25
2019-04-03T11:13:40.566Z,46.55
2019-04-03T11:14:42.482Z,46.64
2019-04-03T11:15:43.571Z,46.15
2019-04-03T11:16:41.776Z,45.48
2019-04-03T11:17:40.778Z,45.2
2019-04-03T11:18:40.462Z,45
2019-04-03T11:19:41.194Z,45.1
2019-04-03T11:20:42.897Z,45.48
2019-04-03T11:21:43.178Z,44.42
2019-04-03T11:22:44.208Z,44.32
2019-04-03T11:25:46.194Z,44.62
2019-04-03T11:25:57.426Z,44.52
2019-04-03T11:26:57.405Z,44.62
2019-04-03T11:27:57.460Z,45
2019-04-03T11:28:57.414Z,44.9
2019-04-03T11:29:57.525Z,44.81
2019-04-03T11:31:02.528Z,45
2019-04-03T11:31:57.604Z,44.81
2019-04-03T11:32:57.436Z,44.52
2019-04-03T11:33:57.438Z,44.42
2019-04-03T11:34:57.691Z,44.04
2019-04-03T11:35:57.841Z,44.04
2019-04-03T11:36:59.568Z,44.04
2019-04-03T11:37:57.520Z,44.23
2019-04-03T11:39:15.557Z,43.94
2019-04-03T11:40:06.613Z,43.75
2019-04-03T11:40:57.368Z,43.65
2019-04-03T11:41:58.798Z,44.42
2019-04-03T11:42:57.650Z,44.62
2019-04-03T11:43:57.587Z,44.62
2019-04-03T11:44:57.614Z,44.13
2019-04-03T11:45:57.357Z,44.71
2019-04-03T11:46:57.354Z,45.1
2019-04-03T11:47:57.351Z,45.39
2019-04-03T11:48:57.741Z,45.1
2019-04-03T11:49:57.355Z,44.71
2019-04-03T11:50:59.696Z,44.42
2019-04-03T11:51:58.896Z,44.42
2019-04-03T11:53:00.987Z,45
2019-04-03T11:53:57.653Z,45.48
2019-04-03T11:54:57.340Z,46.25
2019-04-03T11:55:57.606Z,46.55
2019-04-03T11:56:59.374Z,46.55
2019-04-03T11:57:57.468Z,45.58
2019-04-03T11:58:57.741Z,45.97
2019-04-03T11:59:59.144Z,46.35
2019-04-03T12:00:57.699Z,46.73
2019-04-03T12:01:57.693Z,45.94
2019-04-03T12:02:57.650Z,46.33
2019-04-03T12:03:57.425Z,46.23
2019-04-03T12:04:57.625Z,46.62
2019-04-03T12:05:57.307Z,47.1
2019-04-03T12:06:57.655Z,46.62
2019-04-03T12:07:59.476Z,47
2019-04-03T12:08:59.287Z,47.1
2019-04-03T12:09:57.435Z,47
2019-04-03T12:10:57.415Z,46.91
2019-04-03T12:11:57.964Z,47
2019-04-03T12:12:57.339Z,46.71
2019-04-03T12:13:57.378Z,47.19
2019-04-03T12:14:57.590Z,47.1
2019-04-03T12:16:00.540Z,47
2019-04-03T12:17:00.266Z,47
2019-04-03T12:18:00.685Z,46.98
2019-04-03T12:18:57.451Z,47.75
2019-04-03T12:19:57.269Z,47.75
2019-04-03T12:20:57.619Z,47.36
2019-04-03T12:21:57.598Z,47.85
2019-04-03T12:22:58.173Z,47.56
2019-04-03T12:24:00.557Z,47.65
2019-04-03T12:24:57.516Z,47.56
2019-04-03T12:25:57.353Z,47.94
2019-04-03T12:26:58.198Z,48.33
2019-04-03T12:27:57.272Z,48.03
2019-04-03T12:28:57.265Z,48.13
2019-04-03T12:29:58.498Z,48.3
2019-04-03T12:30:57.278Z,48.3
2019-04-03T12:31:57.253Z,48.49
2019-04-03T12:32:57.234Z,48.88
2019-04-03T12:34:06.758Z,49.36
2019-04-03T12:34:57.613Z,49.46
2019-04-03T12:35:57.455Z,49.27
2019-04-03T12:36:57.273Z,48.88
2019-04-03T12:37:57.242Z,48.59
2019-04-03T12:38:58.627Z,49.46
2019-04-03T12:39:58.193Z,49.46
2019-04-03T12:40:57.220Z,49.17
2019-04-03T12:41:57.384Z,49.36
2019-04-03T12:42:57.203Z,49.48
2019-04-03T12:43:57.211Z,49
2019-04-03T12:44:58.332Z,48.61
2019-04-03T12:46:02.284Z,48.71
2019-04-03T12:46:57.197Z,49.48
2019-04-03T12:47:57.207Z,49.29
2019-04-03T12:48:57.502Z,48.9
2019-04-03T12:49:57.610Z,48.23
2019-04-03T12:50:59.206Z,48.52
2019-04-03T12:51:57.187Z,48.71
2019-04-03T12:52:57.299Z,48.9
2019-04-03T12:53:57.587Z,48.81
2019-04-03T12:54:57.447Z,49.48
2019-04-03T12:56:00.061Z,49.36
2019-04-03T12:56:57.164Z,49.36